Bissett, Canada
Current Conditions -  °F | °C
As of 8:35 AM on Thursday 30 Oct 2014 (Local Time) from CYRL Reporting Station
Light Snow Light Snow  
Wind Chill: 25°   Ceiling: 500
Heat Index: 32°   Visibility: 2.5mi
Dew Point: 30°   Wind: 8mph
Humidity: 93%   Direction: 320°NW
Pressure: 30.08"   Gusts: NA
Location:  51.02°N, 95.67°W
Report Text: CYRL 301335Z 32007KT 2 1/2SM -SN BKN005 OVC009 M00/M01 A3008 RMK SN4SF3SC1 SLP206
Loading
Personal Weather Stations






























Interactive Weather Map New forecast layout! Learn more

10-Day Weather Forecast

Advertisements
Track Severe Weather on mobile